createdAt,value
2022-12-09T00:00:33.520Z,98585.38
2022-12-09T00:01:41.052Z,98582.72
2022-12-09T00:02:44.828Z,98581.00
2022-12-09T00:03:49.042Z,98582.91
2022-12-09T00:04:54.921Z,98578.47
2022-12-09T00:05:59.938Z,98580.16
2022-12-09T00:07:10.337Z,98583.56
2022-12-09T00:08:16.429Z,98581.78
2022-12-09T00:09:20.750Z,98576.41
2022-12-09T00:10:24.563Z,98583.38
2022-12-09T00:11:28.480Z,98579.03
2022-12-09T00:12:32.068Z,98576.50
2022-12-09T00:13:36.487Z,98588.63
2022-12-09T00:14:40.185Z,98578.94
2022-12-09T00:15:44.016Z,98580.72
2022-12-09T00:16:47.836Z,98582.44
2022-12-09T00:17:52.340Z,98585.06
2022-12-09T00:18:57.648Z,98577.16
2022-12-09T00:20:01.598Z,98577.06
2022-12-09T00:21:29.713Z,98578.84
2022-12-09T00:22:36.403Z,98580.56
2022-12-09T00:23:42.392Z,98584.03
2022-12-09T00:24:53.133Z,98577.81
2022-12-09T00:26:13.514Z,98582.16
2022-12-09T00:27:21.455Z,98584.88
2022-12-09T00:28:26.572Z,98579.69
2022-12-09T00:29:35.565Z,98583.09
2022-12-09T00:30:42.440Z,98584.88
2022-12-09T00:31:46.154Z,98583.84
2022-12-09T00:32:50.037Z,98590.06
2022-12-09T00:34:07.302Z,98583.00
2022-12-09T00:35:21.473Z,98583.09
2022-12-09T00:36:31.691Z,98587.44
2022-12-09T00:37:36.441Z,98590.06
2022-12-09T00:38:56.347Z,98595.31
2022-12-09T00:40:00.507Z,98592.78
2022-12-09T00:41:29.448Z,98592.78
2022-12-09T00:42:42.269Z,98596.28
2022-12-09T00:44:03.227Z,98595.31
2022-12-09T00:45:16.126Z,98594.59
2022-12-09T00:46:26.063Z,98598.13
2022-12-09T00:48:58.302Z,98599.19
2022-12-09T00:50:09.132Z,98594.94
2022-12-09T00:51:29.616Z,98598.53
2022-12-09T00:52:33.596Z,98598.69
2022-12-09T00:53:41.179Z,98592.69
2022-12-09T00:54:51.781Z,98597.75
2022-12-09T00:56:02.279Z,98595.97
2022-12-09T00:57:15.358Z,98599.53
2022-12-09T00:58:31.339Z,98592.50
2022-12-09T00:59:47.789Z,98599.53
2022-12-09T01:00:58.499Z,98602.97
2022-12-09T01:02:15.841Z,98604.66
2022-12-09T01:03:24.187Z,98594.94
2022-12-09T01:04:28.061Z,98596.75
2022-12-09T01:05:36.849Z,98600.22
2022-12-09T01:06:53.388Z,98600.13
2022-12-09T01:07:57.443Z,98599.28
2022-12-09T01:09:14.008Z,98602.00
2022-12-09T01:10:52.182Z,98599.38
2022-12-09T01:12:13.208Z,98595.69
2022-12-09T01:13:19.500Z,98593.81
2022-12-09T01:14:27.891Z,98592.69
2022-12-09T01:15:41.033Z,98598.22
2022-12-09T01:16:45.744Z,98599.06
2022-12-09T01:17:56.131Z,98604.16
2022-12-09T01:19:05.127Z,98600.50
2022-12-09T01:20:15.096Z,98600.13
2022-12-09T01:21:20.337Z,98605.00
2022-12-09T01:22:26.947Z,98594.56
2022-12-09T01:23:36.548Z,98606.81
2022-12-09T01:24:41.630Z,98603.97
2022-12-09T01:25:52.829Z,98610.00
2022-12-09T01:26:56.388Z,98611.28
2022-12-09T01:28:00.980Z,98605.00
2022-12-09T01:29:18.126Z,98603.22
2022-12-09T01:30:30.205Z,98601.44
2022-12-09T01:31:39.974Z,98598.81
2022-12-09T01:32:55.520Z,98603.59
2022-12-09T01:33:59.392Z,98599.84
2022-12-09T01:35:08.105Z,98601.53
2022-12-09T01:36:29.066Z,98603.22
2022-12-09T01:37:35.252Z,98603.97
2022-12-09T01:38:57.637Z,98603.31
2022-12-09T01:40:20.287Z,98600.69
2022-12-09T01:41:26.358Z,98594.84
2022-12-09T01:42:34.645Z,98598.41
2022-12-09T01:43:42.219Z,98600.22
2022-12-09T01:45:32.805Z,98601.69
2022-12-09T01:46:46.941Z,98599.91
2022-12-09T01:48:16.708Z,98600.84
2022-12-09T01:49:57.207Z,98606.44
2022-12-09T01:51:16.965Z,98605.28
2022-12-09T01:52:27.451Z,98609.81
2022-12-09T01:53:41.639Z,98604.53
2022-12-09T01:54:54.709Z,98608.97
2022-12-09T01:56:11.418Z,98604.63
2022-12-09T01:57:18.755Z,98604.44
2022-12-09T01:58:29.770Z,98608.75
2022-12-09T01:59:36.846Z,98600.97
2022-12-09T02:00:46.977Z,98593.25
2022-12-09T02:02:00.244Z,98601.16
2022-12-09T02:03:17.299Z,98598.59
2022-12-09T02:04:28.234Z,98603.84
2022-12-09T02:05:32.436Z,98595.88
2022-12-09T02:06:41.027Z,98599.63
2022-12-09T02:07:44.676Z,98598.75
2022-12-09T02:08:51.466Z,98596.22
2022-12-09T02:09:55.112Z,98587.38
2022-12-09T02:11:06.907Z,98593.69
2022-12-09T02:12:24.418Z,98591.06
2022-12-09T02:13:37.567Z,98591.06
2022-12-09T02:15:18.628Z,98586.53
2022-12-09T02:16:30.742Z,98585.59
2022-12-09T02:17:56.050Z,98586.38
2022-12-09T02:20:02.025Z,98586.19
2022-12-09T02:21:49.825Z,98586.25
2022-12-09T02:23:44.720Z,98580.31
2022-12-09T02:25:43.892Z,98580.25
2022-12-09T02:27:20.826Z,98579.47
2022-12-09T02:28:40.411Z,98576.84
2022-12-09T02:30:19.509Z,98583.81
2022-12-09T02:32:06.131Z,98574.97
2022-12-09T02:33:36.721Z,98576.66
2022-12-09T02:35:04.238Z,98569.63
2022-12-09T02:36:26.776Z,98576.50
2022-12-09T02:37:59.545Z,98569.53
2022-12-09T02:39:04.026Z,98572.94
2022-12-09T02:40:46.636Z,98573.78
2022-12-09T02:42:07.076Z,98565.03
2022-12-09T02:43:13.783Z,98563.22
2022-12-09T02:44:23.681Z,98563.34
2022-12-09T02:45:31.707Z,98566.81
2022-12-09T02:46:36.980Z,98573.78
2022-12-09T02:47:48.889Z,98570.28
2022-12-09T02:48:57.922Z,98572.94
2022-12-09T02:50:14.306Z,98566.72
2022-12-09T02:51:22.607Z,98562.75
2022-12-09T02:52:28.393Z,98567.16
2022-12-09T02:53:37.580Z,98563.44
2022-12-09T02:54:43.910Z,98564.28
2022-12-09T02:55:50.481Z,98566.91
2022-12-09T02:57:03.988Z,98564.19
2022-12-09T02:58:07.954Z,98565.97
2022-12-09T02:59:35.622Z,98567.66
2022-12-09T03:00:49.295Z,98572.09
2022-12-09T03:02:49.724Z,98565.03
2022-12-09T03:03:55.882Z,98569.53
2022-12-09T03:05:53.556Z,98567.75
2022-12-09T03:07:31.746Z,98569.53
2022-12-09T03:09:02.622Z,98581.94
2022-12-09T03:10:23.010Z,98580.25
2022-12-09T03:11:33.599Z,98570.72
2022-12-09T03:12:44.023Z,98572.34
2022-12-09T03:14:12.583Z,98568.88
2022-12-09T03:15:30.215Z,98568.19
2022-12-09T03:16:55.297Z,98564.63
2022-12-09T03:20:01.045Z,98563.09
2022-12-09T03:21:09.736Z,98559.59
2022-12-09T03:22:27.940Z,98554.25
2022-12-09T03:23:43.851Z,98559.50
2022-12-09T03:25:20.762Z,98551.63
2022-12-09T03:26:33.330Z,98561.31
2022-12-09T03:28:21.321Z,98559.59
2022-12-09T03:29:32.219Z,98553.59
2022-12-09T03:30:45.479Z,98549.19
2022-12-09T03:32:09.295Z,98549.28
2022-12-09T03:33:29.847Z,98542.22
2022-12-09T03:34:48.078Z,98544.75
2022-12-09T03:35:58.327Z,98546.44
2022-12-09T03:38:32.765Z,98549.38
2022-12-09T03:39:19.967Z,98544.00
2022-12-09T03:40:43.459Z,98543.16
2022-12-09T03:41:57.303Z,98546.63
2022-12-09T03:43:37.805Z,98552.75
2022-12-09T03:45:08.289Z,98551.06
2022-12-09T03:46:33.060Z,98547.66
2022-12-09T03:47:53.035Z,98551.44
2022-12-09T03:49:16.687Z,98553.97
2022-12-09T03:50:34.966Z,98554.81
2022-12-09T03:52:08.709Z,98558.38
2022-12-09T03:53:22.682Z,98555.06
2022-12-09T03:54:40.893Z,98557.72
2022-12-09T03:56:48.118Z,98563.06
2022-12-09T03:58:09.131Z,98558.84
2022-12-09T03:59:29.500Z,98554.44
2022-12-09T04:00:40.000Z,98557.91
2022-12-09T04:01:58.266Z,98558.75
2022-12-09T04:03:08.881Z,98549.91
2022-12-09T04:04:17.913Z,98554.31
2022-12-09T04:05:24.480Z,98555.16
2022-12-09T04:06:29.385Z,98553.38
2022-12-09T04:07:32.925Z,98549.06
2022-12-09T04:08:37.192Z,98551.59
2022-12-09T04:09:42.575Z,98553.38
2022-12-09T04:10:47.022Z,98552.44
2022-12-09T04:11:50.916Z,98556.03
2022-12-09T04:12:54.603Z,98555.16
2022-12-09T04:14:02.566Z,98552.63
2022-12-09T04:15:07.787Z,98554.44
2022-12-09T04:16:11.787Z,98555.28
2022-12-09T04:17:15.468Z,98562.22
2022-12-09T04:18:19.052Z,98551.88
2022-12-09T04:19:22.551Z,98551.78
2022-12-09T04:20:26.377Z,98555.38
2022-12-09T04:21:30.093Z,98557.16
2022-12-09T04:22:33.593Z,98548.41
2022-12-09T04:23:42.509Z,98553.69
2022-12-09T04:24:46.789Z,98552.91
2022-12-09T04:25:50.491Z,98551.22
2022-12-09T04:27:00.176Z,98560.91
2022-12-09T04:28:04.200Z,98554.88
2022-12-09T04:29:19.912Z,98552.34
2022-12-09T04:30:23.543Z,98554.97
2022-12-09T04:31:27.504Z,98556.00
2022-12-09T04:32:32.047Z,98550.66
2022-12-09T04:33:35.744Z,98555.06
2022-12-09T04:34:39.464Z,98552.41
2022-12-09T04:35:43.096Z,98556.84
2022-12-09T04:36:46.512Z,98550.81
2022-12-09T04:37:50.403Z,98561.19
2022-12-09T04:38:57.145Z,98556.00
2022-12-09T04:40:00.648Z,98560.31
2022-12-09T04:41:05.684Z,98563.88
2022-12-09T04:42:10.422Z,98563.03
2022-12-09T04:43:14.619Z,98563.25
2022-12-09T04:44:18.335Z,98556.19
2022-12-09T04:45:22.121Z,98561.56
2022-12-09T04:46:26.770Z,98556.28
2022-12-09T04:47:30.385Z,98562.50
2022-12-09T04:48:34.267Z,98553.81
2022-12-09T04:49:38.227Z,98557.28
2022-12-09T04:50:45.418Z,98558.22
2022-12-09T04:51:52.642Z,98565.28
2022-12-09T04:52:59.071Z,98565.38
2022-12-09T04:54:03.101Z,98561.81
2022-12-09T04:55:07.835Z,98561.91
2022-12-09T04:56:19.065Z,98563.00
2022-12-09T04:57:23.699Z,98560.38
2022-12-09T04:58:28.429Z,98558.69
2022-12-09T04:59:32.453Z,98557.84
2022-12-09T05:00:36.177Z,98560.38
2022-12-09T05:01:40.159Z,98562.06
2022-12-09T05:02:44.781Z,98562.06
2022-12-09T05:03:51.947Z,98560.38
2022-12-09T05:04:56.315Z,98563.84
2022-12-09T05:06:02.745Z,98561.31
2022-12-09T05:07:06.916Z,98563.94
2022-12-09T05:08:10.923Z,98562.25
2022-12-09T05:09:15.277Z,98563.94
2022-12-09T05:10:19.607Z,98563.09
2022-12-09T05:11:24.973Z,98572.78
2022-12-09T05:12:28.715Z,98558.88
2022-12-09T05:13:34.325Z,98566.78
2022-12-09T05:14:38.412Z,98565.94
2022-12-09T05:15:42.403Z,98568.63
2022-12-09T05:16:46.856Z,98564.31
2022-12-09T05:17:50.629Z,98562.63
2022-12-09T05:18:54.700Z,98557.34
2022-12-09T05:19:58.618Z,98562.81
2022-12-09T05:21:11.988Z,98559.41
2022-12-09T05:22:19.516Z,98562.13
2022-12-09T05:23:23.797Z,98559.50
2022-12-09T05:24:27.843Z,98557.06
2022-12-09T05:25:34.010Z,98557.22
2022-12-09T05:26:40.048Z,98555.53
2022-12-09T05:27:44.067Z,98561.63
2022-12-09T05:28:48.272Z,98553.81
2022-12-09T05:29:52.562Z,98556.66
2022-12-09T05:31:04.871Z,98559.38
2022-12-09T05:32:10.777Z,98564.63
2022-12-09T05:33:15.887Z,98558.69
2022-12-09T05:34:19.855Z,98553.44
2022-12-09T05:35:23.748Z,98554.38
2022-12-09T05:36:27.816Z,98557.09
2022-12-09T05:37:32.296Z,98557.34
2022-12-09T05:38:36.486Z,98559.97
2022-12-09T05:39:40.277Z,98561.84
2022-12-09T05:40:43.823Z,98555.75
2022-12-09T05:41:47.951Z,98558.53
2022-12-09T05:42:51.834Z,98556.84
2022-12-09T05:43:56.633Z,98559.66
2022-12-09T05:45:01.199Z,98559.81
2022-12-09T05:46:06.815Z,98561.69
2022-12-09T05:47:11.369Z,98557.28
2022-12-09T05:48:18.714Z,98550.59
2022-12-09T05:49:36.393Z,98563.72
2022-12-09T05:50:41.159Z,98555.09
2022-12-09T05:51:59.799Z,98557.91
2022-12-09T05:53:14.609Z,98558.81
2022-12-09T05:54:20.938Z,98552.88
2022-12-09T05:55:25.014Z,98553.91
2022-12-09T05:56:29.191Z,98563.66
2022-12-09T05:57:35.306Z,98566.47
2022-12-09T05:58:39.235Z,98558.66
2022-12-09T05:59:43.147Z,98556.19
2022-12-09T06:00:47.782Z,98551.13
2022-12-09T06:01:51.689Z,98556.47
2022-12-09T06:02:55.258Z,98554.78
2022-12-09T06:03:59.001Z,98549.66
2022-12-09T06:05:03.415Z,98552.41
2022-12-09T06:06:31.487Z,98554.19
2022-12-09T06:07:36.631Z,98550.78
2022-12-09T06:08:42.749Z,98548.31
2022-12-09T06:09:47.312Z,98554.59
2022-12-09T06:10:51.581Z,98556.44
2022-12-09T06:11:55.274Z,98553.16
2022-12-09T06:12:58.935Z,98559.66
2022-12-09T06:14:02.838Z,98557.97
2022-12-09T06:15:10.454Z,98557.22
2022-12-09T06:16:19.921Z,98560.25
2022-12-09T06:17:24.184Z,98556.59
2022-12-09T06:18:27.774Z,98564.50
2022-12-09T06:19:31.854Z,98565.25
2022-12-09T06:20:38.905Z,98561.88
2022-12-09T06:21:43.098Z,98561.88
2022-12-09T06:22:46.909Z,98556.75
2022-12-09T06:23:51.654Z,98558.63
2022-12-09T06:24:57.343Z,98563.78
2022-12-09T06:26:00.896Z,98567.44
2022-12-09T06:27:05.243Z,98575.22
2022-12-09T06:28:09.346Z,98576.06
2022-12-09T06:29:13.474Z,98572.69
2022-12-09T06:30:17.397Z,98580.56
2022-12-09T06:31:21.358Z,98574.47
2022-12-09T06:32:26.055Z,98581.50
2022-12-09T06:33:53.639Z,98576.25
2022-12-09T06:34:53.755Z,98574.72
2022-12-09T06:36:02.827Z,98566.06
2022-12-09T06:37:06.410Z,98573.19
2022-12-09T06:38:10.327Z,98575.03
2022-12-09T06:39:14.381Z,98579.38
2022-12-09T06:40:18.089Z,98574.19
2022-12-09T06:41:21.950Z,98572.50
2022-12-09T06:42:25.918Z,98571.66
2022-12-09T06:43:30.108Z,98569.97
2022-12-09T06:44:34.352Z,98579.63
2022-12-09T06:45:38.919Z,98571.81
2022-12-09T06:46:42.912Z,98580.63
2022-12-09T06:47:48.305Z,98575.38
2022-12-09T06:48:53.880Z,98574.53
2022-12-09T06:50:06.533Z,98577.22
2022-12-09T06:51:11.987Z,98569.44
2022-12-09T06:52:15.960Z,98577.31
2022-12-09T06:53:19.481Z,98575.53
2022-12-09T06:54:23.705Z,98569.50
2022-12-09T06:55:30.035Z,98570.44
2022-12-09T06:56:34.020Z,98566.13
2022-12-09T06:57:37.630Z,98568.06
2022-12-09T06:58:45.079Z,98560.09
2022-12-09T06:59:49.549Z,98557.41
2022-12-09T07:00:53.275Z,98564.50
2022-12-09T07:01:58.854Z,98575.94
2022-12-09T07:03:02.844Z,98571.53
2022-12-09T07:04:08.472Z,98570.75
2022-12-09T07:05:13.021Z,98567.22
2022-12-09T07:06:42.777Z,98570.75
2022-12-09T07:07:54.611Z,98576.88
2022-12-09T07:09:08.141Z,98568.22
2022-12-09T07:10:12.204Z,98582.13
2022-12-09T07:11:16.139Z,98579.41
2022-12-09T07:12:20.738Z,98580.34
2022-12-09T07:13:25.323Z,98586.34
2022-12-09T07:14:28.892Z,98589.75
2022-12-09T07:15:32.751Z,98580.94
2022-12-09T07:16:37.477Z,98579.16
2022-12-09T07:17:41.430Z,98588.75
2022-12-09T07:18:45.479Z,98582.56
2022-12-09T07:19:51.414Z,98577.31
2022-12-09T07:20:55.220Z,98573.00
2022-12-09T07:21:59.816Z,98568.66
2022-12-09T07:23:03.581Z,98565.28
2022-12-09T07:24:12.656Z,98560.25
2022-12-09T07:25:16.320Z,98553.16
2022-12-09T07:26:21.374Z,98553.41
2022-12-09T07:27:25.108Z,98553.22
2022-12-09T07:28:29.898Z,98548.69
2022-12-09T07:29:35.399Z,98553.66
2022-12-09T07:30:39.107Z,98555.28
2022-12-09T07:31:43.240Z,98553.53
2022-12-09T07:32:47.311Z,98555.22
2022-12-09T07:33:53.553Z,98548.19
2022-12-09T07:34:57.897Z,98544.53
2022-12-09T07:36:01.749Z,98540.97
2022-12-09T07:37:07.289Z,98539.28
2022-12-09T07:38:10.952Z,98533.94
2022-12-09T07:39:18.703Z,98529.72
2022-12-09T07:40:22.252Z,98534.88
2022-12-09T07:41:27.403Z,98533.00
2022-12-09T07:42:31.296Z,98533.88
2022-12-09T07:43:39.210Z,98533.00
2022-12-09T07:44:43.068Z,98532.88
2022-12-09T07:45:46.638Z,98534.72
2022-12-09T07:46:52.158Z,98528.47
2022-12-09T07:47:56.400Z,98535.31
2022-12-09T07:49:04.837Z,98533.53
2022-12-09T07:50:09.211Z,98539.63
2022-12-09T07:51:12.827Z,98534.38
2022-12-09T07:52:16.458Z,98534.38
2022-12-09T07:53:19.989Z,98525.66
2022-12-09T07:54:23.897Z,98529.91
2022-12-09T07:55:28.199Z,98525.59
2022-12-09T07:56:32.200Z,98531.50
2022-12-09T07:57:38.445Z,98527.97
2022-12-09T07:58:44.757Z,98519.97
2022-12-09T07:59:48.785Z,98522.56
2022-12-09T08:00:52.676Z,98530.34
2022-12-09T08:02:01.092Z,98520.59
2022-12-09T08:03:08.127Z,98526.59
2022-12-09T08:04:13.157Z,98517.81
2022-12-09T08:05:17.712Z,98519.41
2022-12-09T08:06:26.164Z,98520.16
2022-12-09T08:07:31.069Z,98524.56
2022-12-09T08:08:35.685Z,98532.31
2022-12-09T08:09:39.583Z,98535.78
2022-12-09T08:10:44.682Z,98540.00
2022-12-09T08:11:48.624Z,98536.44
2022-12-09T08:12:52.453Z,98538.13
2022-12-09T08:14:08.856Z,98542.41
2022-12-09T08:15:17.052Z,98548.41
2022-12-09T08:16:23.747Z,98547.38
2022-12-09T08:17:29.794Z,98539.41
2022-12-09T08:18:42.924Z,98548.06
2022-12-09T08:19:46.884Z,98549.66
2022-12-09T08:20:50.954Z,98544.31
2022-12-09T08:21:54.993Z,98544.25
2022-12-09T08:22:59.190Z,98544.84
2022-12-09T08:24:06.043Z,98538.59
2022-12-09T08:25:11.298Z,98539.34
2022-12-09T08:26:19.214Z,98543.41
2022-12-09T08:27:23.271Z,98545.94
2022-12-09T08:28:27.667Z,98548.47
2022-12-09T08:29:31.374Z,98543.03
2022-12-09T08:30:37.658Z,98545.50
2022-12-09T08:31:44.256Z,98548.97
2022-12-09T08:32:48.553Z,98555.84
2022-12-09T08:33:53.835Z,98541.69
2022-12-09T08:34:57.688Z,98547.69
2022-12-09T08:36:04.588Z,98547.59
2022-12-09T08:37:08.671Z,98542.19
2022-12-09T08:38:13.082Z,98543.88
2022-12-09T08:39:16.927Z,98540.13
2022-12-09T08:40:20.451Z,98539.19
2022-12-09T08:41:38.490Z,98536.56
2022-12-09T08:42:43.112Z,98541.81
2022-12-09T08:43:48.374Z,98545.22
2022-12-09T08:44:57.131Z,98540.72
2022-12-09T08:46:08.697Z,98537.25
2022-12-09T08:47:12.478Z,98544.00
2022-12-09T08:48:16.780Z,98536.06
2022-12-09T08:49:23.418Z,98542.81
2022-12-09T08:50:27.395Z,98541.72
2022-12-09T08:51:32.494Z,98536.25
2022-12-09T08:52:40.901Z,98536.94
2022-12-09T08:53:48.905Z,98524.63
2022-12-09T08:54:53.010Z,98531.59
2022-12-09T08:55:57.097Z,98535.81
2022-12-09T08:57:04.589Z,98533.88
2022-12-09T08:58:08.496Z,98535.28
2022-12-09T08:59:12.421Z,98538.78
2022-12-09T09:00:17.510Z,98539.41
2022-12-09T09:01:37.403Z,98537.63
2022-12-09T09:02:41.443Z,98545.28
2022-12-09T09:03:47.063Z,98535.38
2022-12-09T09:04:51.021Z,98536.16
2022-12-09T09:06:08.702Z,98535.03
2022-12-09T09:07:14.390Z,98534.78
2022-12-09T09:08:20.465Z,98542.47
2022-12-09T09:09:27.164Z,98535.06
2022-12-09T09:10:31.221Z,98533.09
2022-12-09T09:11:35.734Z,98523.22
2022-12-09T09:12:43.495Z,98524.91
2022-12-09T09:13:51.755Z,98525.56
2022-12-09T09:14:55.568Z,98528.31
2022-12-09T09:15:59.359Z,98533.19
2022-12-09T09:17:03.534Z,98534.69
2022-12-09T09:18:07.742Z,98527.84
2022-12-09T09:19:29.601Z,98525.94
2022-12-09T09:20:33.628Z,98523.25
2022-12-09T09:21:37.384Z,98525.50
2022-12-09T09:22:41.697Z,98532.25
2022-12-09T09:23:46.125Z,98524.09
2022-12-09T09:24:51.245Z,98534.34
2022-12-09T09:25:54.906Z,98532.19
2022-12-09T09:26:58.875Z,98534.63
2022-12-09T09:28:02.957Z,98528.88
2022-12-09T09:29:08.587Z,98527.81
2022-12-09T09:30:12.949Z,98520.47
2022-12-09T09:31:21.212Z,98524.53
2022-12-09T09:32:24.866Z,98521.69
2022-12-09T09:33:29.940Z,98514.34
2022-12-09T09:34:33.773Z,98514.34
2022-12-09T09:35:37.947Z,98517.31
2022-12-09T09:36:42.382Z,98511.31
2022-12-09T09:37:46.489Z,98515.25
2022-12-09T09:38:57.620Z,98513.34
2022-12-09T09:40:02.603Z,98514.97
2022-12-09T09:41:48.751Z,98503.16
2022-12-09T09:42:56.833Z,98503.69
2022-12-09T09:44:02.028Z,98503.41
2022-12-09T09:45:15.226Z,98504.53
2022-12-09T09:46:44.983Z,98495.69
2022-12-09T09:47:56.730Z,98500.22
2022-12-09T09:49:02.553Z,98501.06
2022-12-09T09:50:27.731Z,98494.00
2022-12-09T09:51:35.764Z,98491.19
2022-12-09T09:52:42.820Z,98488.81
2022-12-09T09:53:53.437Z,98495.56
2022-12-09T09:54:58.686Z,98493.88
2022-12-09T09:56:35.318Z,98499.94
2022-12-09T09:58:00.261Z,98496.34
2022-12-09T09:59:42.016Z,98500.47
2022-12-09T10:01:08.538Z,98495.84
2022-12-09T10:02:12.674Z,98496.69
2022-12-09T10:03:48.743Z,98496.69
2022-12-09T10:05:19.735Z,98490.75
2022-12-09T10:06:50.899Z,98490.56
2022-12-09T10:08:32.798Z,98487.25
2022-12-09T10:10:15.683Z,98492.66
2022-12-09T10:11:49.560Z,98486.75
2022-12-09T10:13:08.224Z,98481.66
2022-12-09T10:14:28.797Z,98487.78
2022-12-09T10:16:06.392Z,98477.03
2022-12-09T10:17:48.976Z,98470.16
2022-12-09T10:19:20.681Z,98476.44
2022-12-09T10:20:30.639Z,98481.41
2022-12-09T10:21:42.627Z,98476.59
2022-12-09T10:22:56.871Z,98480.19
2022-12-09T10:24:48.488Z,98466.44
2022-12-09T10:26:00.370Z,98470.22
2022-12-09T10:27:35.099Z,98469.13
2022-12-09T10:28:48.417Z,98467.50
2022-12-09T10:30:03.603Z,98467.84
2022-12-09T10:31:10.448Z,98465.72
2022-12-09T10:32:20.663Z,98465.22
2022-12-09T10:33:37.232Z,98456.38
2022-12-09T10:34:44.471Z,98459.53
2022-12-09T10:35:49.566Z,98460.50
2022-12-09T10:36:53.802Z,98462.16
2022-12-09T10:38:11.815Z,98453.41
2022-12-09T10:39:22.020Z,98450.66
2022-12-09T10:40:46.977Z,98449.75
2022-12-09T10:42:18.161Z,98455.03
2022-12-09T10:43:39.534Z,98451.09
2022-12-09T10:44:43.907Z,98442.41
2022-12-09T10:47:29.501Z,98443.06
2022-12-09T10:48:49.423Z,98440.13
2022-12-09T10:49:56.166Z,98432.00
2022-12-09T10:51:17.639Z,98440.78
2022-12-09T10:52:31.713Z,98440.38
2022-12-09T10:53:36.162Z,98437.50
2022-12-09T10:54:44.878Z,98434.56
2022-12-09T10:55:54.784Z,98438.66
2022-12-09T10:57:13.846Z,98427.81
2022-12-09T10:58:31.810Z,98435.72
2022-12-09T10:59:36.954Z,98438.38
2022-12-09T11:00:57.674Z,98451.16
2022-12-09T11:02:09.137Z,98450.31
2022-12-09T11:03:31.558Z,98450.94
2022-12-09T11:04:44.172Z,98444.69
2022-12-09T11:06:03.257Z,98446.84
2022-12-09T11:07:13.262Z,98446.41
2022-12-09T11:08:23.156Z,98450.53
2022-12-09T11:09:38.679Z,98453.91
2022-12-09T11:10:51.207Z,98446.63
2022-12-09T11:11:55.086Z,98438.47
2022-12-09T11:13:08.990Z,98436.38
2022-12-09T11:14:40.601Z,98431.72
2022-12-09T11:15:54.540Z,98429.19
2022-12-09T11:17:18.678Z,98423.19
2022-12-09T11:18:47.134Z,98419.81
2022-12-09T11:20:22.508Z,98430.25
2022-12-09T11:21:37.878Z,98423.28
2022-12-09T11:22:45.037Z,98429.53
2022-12-09T11:24:02.511Z,98432.47
2022-12-09T11:25:13.371Z,98425.63
2022-12-09T11:26:35.075Z,98433.44
2022-12-09T11:27:42.075Z,98439.78
2022-12-09T11:28:45.992Z,98428.34
2022-12-09T11:30:13.940Z,98440.50
2022-12-09T11:31:30.564Z,98440.63
2022-12-09T11:32:55.819Z,98440.63
2022-12-09T11:34:14.413Z,98429.84
2022-12-09T11:35:25.153Z,98435.34
2022-12-09T11:36:44.386Z,98434.28
2022-12-09T11:37:48.596Z,98434.38
2022-12-09T11:39:09.674Z,98433.31
2022-12-09T11:40:19.247Z,98440.38
2022-12-09T11:41:44.993Z,98437.88
2022-12-09T11:42:58.021Z,98432.16
2022-12-09T11:44:02.717Z,98434.81
2022-12-09T11:45:31.804Z,98434.47
2022-12-09T11:46:36.943Z,98437.22
2022-12-09T11:48:23.008Z,98431.72
2022-12-09T11:49:17.296Z,98429.53
2022-12-09T11:50:25.509Z,98431.09
2022-12-09T11:52:18.944Z,98430.16
2022-12-09T11:53:32.089Z,98429.41
2022-12-09T11:54:58.757Z,98426.78
2022-12-09T11:56:27.918Z,98426.78
2022-12-09T11:57:43.452Z,98432.06
2022-12-09T11:59:14.668Z,98415.25
2022-12-09T12:00:21.075Z,98424.88
2022-12-09T12:01:46.536Z,98425.81
2022-12-09T12:03:20.848Z,98420.94
2022-12-09T12:04:35.540Z,98422.63
2022-12-09T12:05:47.913Z,98421.78
2022-12-09T12:07:03.646Z,98418.31
2022-12-09T12:08:43.831Z,98413.16
2022-12-09T12:09:56.172Z,98408.09
2022-12-09T12:11:14.903Z,98397.53
2022-12-09T12:12:43.698Z,98388.13
2022-12-09T12:13:49.482Z,98392.56
2022-12-09T12:14:56.608Z,98380.31
2022-12-09T12:16:13.911Z,98383.78
2022-12-09T12:17:24.949Z,98378.53
2022-12-09T12:18:36.403Z,98369.75
2022-12-09T12:19:43.720Z,98374.19
2022-12-09T12:21:17.167Z,98365.50
2022-12-09T12:22:51.607Z,98358.44
2022-12-09T12:24:28.573Z,98356.75
2022-12-09T12:25:53.182Z,98358.66
2022-12-09T12:27:15.123Z,98348.22
2022-12-09T12:28:28.865Z,98348.22
2022-12-09T12:29:48.604Z,98350.00
2022-12-09T12:31:32.072Z,98364.25
2022-12-09T12:34:54.679Z,98369.13
2022-12-09T12:36:22.897Z,98362.91
2022-12-09T12:38:03.275Z,98369.13
2022-12-09T12:39:45.662Z,98362.25
2022-12-09T12:41:26.243Z,98364.06
2022-12-09T12:43:06.837Z,98358.22
2022-12-09T12:44:47.538Z,98357.19
2022-12-09T12:46:20.019Z,98347.47
2022-12-09T12:47:45.239Z,98356.34
2022-12-09T12:49:20.586Z,98356.34
2022-12-09T12:51:24.944Z,98350.75
2022-12-09T12:52:57.788Z,98356.03
2022-12-09T12:54:48.961Z,98361.50
2022-12-09T12:56:00.247Z,98355.28
2022-12-09T12:57:22.348Z,98357.19
2022-12-09T12:58:46.966Z,98361.50
2022-12-09T13:00:24.557Z,98358.25
2022-12-09T13:02:00.511Z,98346.09
2022-12-09T13:03:26.209Z,98349.69
2022-12-09T13:04:46.404Z,98341.78
2022-12-09T13:05:54.437Z,98338.50
2022-12-09T13:07:12.116Z,98341.78
2022-12-09T13:08:35.598Z,98341.03
2022-12-09T13:09:58.170Z,98342.19
2022-12-09T13:11:22.748Z,98348.31
2022-12-09T13:12:54.798Z,98353.38
2022-12-09T13:14:06.587Z,98350.09
2022-12-09T13:15:19.335Z,98341.03
2022-12-09T13:16:39.589Z,98340.06
2022-12-09T13:17:46.894Z,98340.06
2022-12-09T13:18:50.848Z,98343.56
2022-12-09T13:20:02.238Z,98348.19
2022-12-09T13:21:07.603Z,98340.28
2022-12-09T13:22:27.717Z,98349.03
2022-12-09T13:23:57.348Z,98335.72
2022-12-09T13:25:33.221Z,98329.09
2022-12-09T13:27:26.952Z,98333.59
2022-12-09T13:29:13.131Z,98324.84
2022-12-09T13:30:27.305Z,98327.31
2022-12-09T13:31:35.267Z,98319.78
2022-12-09T13:33:12.854Z,98316.00
2022-12-09T13:34:40.823Z,98307.34
2022-12-09T13:36:15.149Z,98314.19
2022-12-09T13:37:45.191Z,98311.47
2022-12-09T13:38:49.156Z,98312.22
2022-12-09T13:39:58.497Z,98312.00
2022-12-09T13:41:30.725Z,98307.88
2022-12-09T13:42:53.601Z,98300.16
2022-12-09T13:44:11.727Z,98297.97
2022-12-09T13:45:36.847Z,98298.16
2022-12-09T13:46:47.644Z,98288.78
2022-12-09T13:47:56.659Z,98301.97
2022-12-09T13:49:11.945Z,98301.00
2022-12-09T13:50:32.375Z,98301.63
2022-12-09T13:51:48.958Z,98289.63
2022-12-09T13:52:57.860Z,98284.97
2022-12-09T13:54:04.570Z,98279.72
2022-12-09T13:55:54.069Z,98275.28
2022-12-09T13:57:39.891Z,98281.63
2022-12-09T13:59:21.378Z,98292.88
2022-12-09T14:00:25.218Z,98290.66
2022-12-09T14:01:42.115Z,98288.78
2022-12-09T14:03:12.384Z,98288.03
2022-12-09T14:04:30.426Z,98288.88
2022-12-09T14:05:37.295Z,98281.19
2022-12-09T14:06:46.359Z,98278.25
2022-12-09T14:08:07.256Z,98272.97
2022-12-09T14:09:56.357Z,98259.25
2022-12-09T14:11:52.799Z,98270.75
2022-12-09T14:12:56.069Z,98266.41
2022-12-09T14:14:24.957Z,98271.88
2022-12-09T14:15:28.642Z,98270.94
2022-12-09T14:16:35.046Z,98280.34
2022-12-09T14:17:38.977Z,98281.19
2022-12-09T14:18:43.520Z,98280.22
2022-12-09T14:20:39.098Z,98285.72
2022-12-09T14:21:42.686Z,98284.94
2022-12-09T14:23:12.637Z,98287.50
2022-12-09T14:24:16.901Z,98283.09